sensor_id;sensor_type;location;lat;lon;timestamp;P1;durP1;ratioP1;P2;durP2;ratioP2
10432;SDS011;5263;48.680;9.004;2024-01-15T00:00:16;14.00;;;6.47;;
10432;SDS011;5263;48.680;9.004;2024-01-15T00:02:42;15.80;;;6.63;;
10432;SDS011;5263;48.680;9.004;2024-01-15T00:05:08;19.07;;;7.67;;
10432;SDS011;5263;48.680;9.004;2024-01-15T00:07:33;14.80;;;6.47;;
10432;SDS011;5263;48.680;9.004;2024-01-15T00:10:00;16.00;;;7.00;;
10432;SDS011;5263;48.680;9.004;2024-01-15T00:12:26;14.27;;;6.43;;
10432;SDS011;5263;48.680;9.004;2024-01-15T00:14:52;14.90;;;7.90;;
10432;SDS011;5263;48.680;9.004;2024-01-15T00:17:18;16.63;;;8.17;;
10432;SDS011;5263;48.680;9.004;2024-01-15T00:19:43;17.10;;;8.27;;
10432;SDS011;5263;48.680;9.004;2024-01-15T00:22:09;15.17;;;7.20;;
10432;SDS011;5263;48.680;9.004;2024-01-15T00:24:34;18.67;;;8.23;;
10432;SDS011;5263;48.680;9.004;2024-01-15T00:27:00;13.00;;;6.70;;
10432;SDS011;5263;48.680;9.004;2024-01-15T00:29:25;13.13;;;7.33;;
10432;SDS011;5263;48.680;9.004;2024-01-15T00:31:51;15.13;;;6.47;;
10432;SDS011;5263;48.680;9.004;2024-01-15T00:34:17;15.00;;;7.33;;
10432;SDS011;5263;48.680;9.004;2024-01-15T00:36:42;15.23;;;7.43;;
10432;SDS011;5263;48.680;9.004;2024-01-15T00:39:08;15.93;;;6.57;;
10432;SDS011;5263;48.680;9.004;2024-01-15T00:41:35;16.83;;;6.63;;
10432;SDS011;5263;48.680;9.004;2024-01-15T00:44:01;15.33;;;6.73;;
10432;SDS011;5263;48.680;9.004;2024-01-15T00:46:28;11.20;;;6.80;;
10432;SDS011;5263;48.680;9.004;2024-01-15T00:48:53;16.03;;;7.87;;
10432;SDS011;5263;48.680;9.004;2024-01-15T00:51:19;15.33;;;7.33;;
10432;SDS011;5263;48.680;9.004;2024-01-15T00:53:45;13.17;;;6.63;;
10432;SDS011;5263;48.680;9.004;2024-01-15T00:56:10;14.53;;;6.80;;
10432;SDS011;5263;48.680;9.004;2024-01-15T00:58:36;15.03;;;7.37;;
10432;SDS011;5263;48.680;9.004;2024-01-15T01:01:01;15.00;;;7.17;;
10432;SDS011;5263;48.680;9.004;2024-01-15T01:03:27;11.27;;;5.10;;
10432;SDS011;5263;48.680;9.004;2024-01-15T01:05:53;16.37;;;7.20;;
10432;SDS011;5263;48.680;9.004;2024-01-15T01:08:18;14.93;;;6.50;;
10432;SDS011;5263;48.680;9.004;2024-01-15T01:10:44;18.07;;;7.37;;
10432;SDS011;5263;48.680;9.004;2024-01-15T01:13:09;15.20;;;6.17;;
10432;SDS011;5263;48.680;9.004;2024-01-15T01:15:35;16.40;;;5.70;;
10432;SDS011;5263;48.680;9.004;2024-01-15T01:18:00;17.93;;;7.17;;
10432;SDS011;5263;48.680;9.004;2024-01-15T01:20:26;18.80;;;7.47;;
10432;SDS011;5263;48.680;9.004;2024-01-15T01:22:51;14.73;;;6.90;;
10432;SDS011;5263;48.680;9.004;2024-01-15T01:25:17;16.73;;;7.23;;
10432;SDS011;5263;48.680;9.004;2024-01-15T01:27:42;15.20;;;6.53;;
10432;SDS011;5263;48.680;9.004;2024-01-15T01:30:08;17.33;;;8.30;;
10432;SDS011;5263;48.680;9.004;2024-01-15T01:32:34;16.00;;;6.70;;
10432;SDS011;5263;48.680;9.004;2024-01-15T01:35:00;14.67;;;7.27;;
10432;SDS011;5263;48.680;9.004;2024-01-15T01:37:25;16.93;;;6.90;;
10432;SDS011;5263;48.680;9.004;2024-01-15T01:39:51;12.53;;;6.80;;
10432;SDS011;5263;48.680;9.004;2024-01-15T01:42:17;16.87;;;7.97;;
10432;SDS011;5263;48.680;9.004;2024-01-15T01:44:42;13.97;;;6.13;;
10432;SDS011;5263;48.680;9.004;2024-01-15T01:47:08;12.37;;;6.23;;
10432;SDS011;5263;48.680;9.004;2024-01-15T01:49:34;16.30;;;7.33;;
10432;SDS011;5263;48.680;9.004;2024-01-15T01:52:01;13.10;;;5.97;;
10432;SDS011;5263;48.680;9.004;2024-01-15T01:54:31;16.80;;;7.37;;
10432;SDS011;5263;48.680;9.004;2024-01-15T01:56:57;12.77;;;6.63;;
10432;SDS011;5263;48.680;9.004;2024-01-15T01:59:23;12.50;;;6.63;;
10432;SDS011;5263;48.680;9.004;2024-01-15T02:01:51;12.40;;;6.00;;
10432;SDS011;5263;48.680;9.004;2024-01-15T02:04:24;16.30;;;7.47;;
10432;SDS011;5263;48.680;9.004;2024-01-15T02:06:50;16.13;;;6.87;;
10432;SDS011;5263;48.680;9.004;2024-01-15T02:09:17;13.73;;;6.20;;
10432;SDS011;5263;48.680;9.004;2024-01-15T02:11:43;13.43;;;6.87;;
10432;SDS011;5263;48.680;9.004;2024-01-15T02:14:11;12.90;;;6.30;;
10432;SDS011;5263;48.680;9.004;2024-01-15T02:16:36;15.90;;;7.77;;
10432;SDS011;5263;48.680;9.004;2024-01-15T02:19:02;16.83;;;7.17;;
10432;SDS011;5263;48.680;9.004;2024-01-15T02:21:29;15.70;;;7.13;;
10432;SDS011;5263;48.680;9.004;2024-01-15T02:23:56;16.67;;;7.27;;
10432;SDS011;5263;48.680;9.004;2024-01-15T02:26:22;14.93;;;7.07;;
10432;SDS011;5263;48.680;9.004;2024-01-15T02:28:48;15.20;;;7.57;;
10432;SDS011;5263;48.680;9.004;2024-01-15T02:31:15;16.13;;;7.60;;
10432;SDS011;5263;48.680;9.004;2024-01-15T02:33:41;12.37;;;5.90;;
10432;SDS011;5263;48.680;9.004;2024-01-15T02:36:07;13.03;;;6.17;;
10432;SDS011;5263;48.680;9.004;2024-01-15T02:38:33;14.87;;;6.37;;
10432;SDS011;5263;48.680;9.004;2024-01-15T02:40:59;15.60;;;6.60;;
10432;SDS011;5263;48.680;9.004;2024-01-15T02:43:24;11.93;;;5.70;;
10432;SDS011;5263;48.680;9.004;2024-01-15T02:45:50;15.27;;;6.30;;
10432;SDS011;5263;48.680;9.004;2024-01-15T02:48:15;16.50;;;6.77;;
10432;SDS011;5263;48.680;9.004;2024-01-15T02:50:41;18.53;;;7.03;;
10432;SDS011;5263;48.680;9.004;2024-01-15T02:53:06;16.47;;;7.57;;
10432;SDS011;5263;48.680;9.004;2024-01-15T02:55:32;14.30;;;6.47;;
10432;SDS011;5263;48.680;9.004;2024-01-15T02:57:58;18.00;;;7.30;;
10432;SDS011;5263;48.680;9.004;2024-01-15T03:00:24;13.70;;;7.20;;
10432;SDS011;5263;48.680;9.004;2024-01-15T03:02:50;14.10;;;7.13;;
10432;SDS011;5263;48.680;9.004;2024-01-15T03:05:16;13.37;;;7.17;;
10432;SDS011;5263;48.680;9.004;2024-01-15T03:07:42;14.13;;;6.27;;
10432;SDS011;5263;48.680;9.004;2024-01-15T03:10:08;16.80;;;7.13;;
10432;SDS011;5263;48.680;9.004;2024-01-15T03:12:34;13.87;;;6.87;;
10432;SDS011;5263;48.680;9.004;2024-01-15T03:15:00;16.80;;;7.60;;
10432;SDS011;5263;48.680;9.004;2024-01-15T03:17:25;13.90;;;6.73;;
10432;SDS011;5263;48.680;9.004;2024-01-15T03:19:51;15.60;;;7.13;;
10432;SDS011;5263;48.680;9.004;2024-01-15T03:22:17;17.00;;;6.30;;
10432;SDS011;5263;48.680;9.004;2024-01-15T03:24:42;15.40;;;6.33;;
10432;SDS011;5263;48.680;9.004;2024-01-15T03:27:08;16.93;;;7.10;;
10432;SDS011;5263;48.680;9.004;2024-01-15T03:29:34;15.87;;;6.80;;
10432;SDS011;5263;48.680;9.004;2024-01-15T03:31:59;10.80;;;4.93;;
10432;SDS011;5263;48.680;9.004;2024-01-15T03:34:25;12.97;;;5.63;;
10432;SDS011;5263;48.680;9.004;2024-01-15T03:36:51;13.13;;;5.93;;
10432;SDS011;5263;48.680;9.004;2024-01-15T03:39:16;13.87;;;6.30;;
10432;SDS011;5263;48.680;9.004;2024-01-15T03:41:42;9.30;;;3.23;;
10432;SDS011;5263;48.680;9.004;2024-01-15T03:44:07;11.83;;;4.70;;
10432;SDS011;5263;48.680;9.004;2024-01-15T03:46:33;11.53;;;5.70;;
10432;SDS011;5263;48.680;9.004;2024-01-15T03:48:58;15.27;;;7.30;;
10432;SDS011;5263;48.680;9.004;2024-01-15T03:51:24;17.93;;;6.27;;
10432;SDS011;5263;48.680;9.004;2024-01-15T03:53:50;12.20;;;4.97;;
10432;SDS011;5263;48.680;9.004;2024-01-15T03:56:15;15.80;;;6.07;;
10432;SDS011;5263;48.680;9.004;2024-01-15T03:58:41;17.97;;;6.63;;
10432;SDS011;5263;48.680;9.004;2024-01-15T04:01:10;14.60;;;6.97;;
10432;SDS011;5263;48.680;9.004;2024-01-15T04:03:35;20.57;;;6.73;;
10432;SDS011;5263;48.680;9.004;2024-01-15T04:06:01;17.30;;;7.67;;
10432;SDS011;5263;48.680;9.004;2024-01-15T04:08:27;14.60;;;6.33;;
10432;SDS011;5263;48.680;9.004;2024-01-15T04:10:52;16.27;;;6.47;;
10432;SDS011;5263;48.680;9.004;2024-01-15T04:13:18;13.83;;;6.53;;
10432;SDS011;5263;48.680;9.004;2024-01-15T04:15:44;18.37;;;7.57;;
10432;SDS011;5263;48.680;9.004;2024-01-15T04:18:09;15.70;;;6.87;;
10432;SDS011;5263;48.680;9.004;2024-01-15T04:20:35;19.53;;;8.17;;
10432;SDS011;5263;48.680;9.004;2024-01-15T04:23:00;14.40;;;7.30;;
10432;SDS011;5263;48.680;9.004;2024-01-15T04:25:26;16.23;;;6.63;;
10432;SDS011;5263;48.680;9.004;2024-01-15T04:27:51;16.77;;;6.30;;
10432;SDS011;5263;48.680;9.004;2024-01-15T04:30:17;14.63;;;6.53;;
10432;SDS011;5263;48.680;9.004;2024-01-15T04:32:42;11.73;;;6.37;;
10432;SDS011;5263;48.680;9.004;2024-01-15T04:35:08;16.87;;;7.27;;
10432;SDS011;5263;48.680;9.004;2024-01-15T04:37:34;12.47;;;6.33;;
10432;SDS011;5263;48.680;9.004;2024-01-15T04:39:59;14.83;;;6.83;;
10432;SDS011;5263;48.680;9.004;2024-01-15T04:42:25;14.13;;;7.07;;
10432;SDS011;5263;48.680;9.004;2024-01-15T04:44:50;13.70;;;6.70;;
10432;SDS011;5263;48.680;9.004;2024-01-15T04:47:16;14.27;;;7.53;;
10432;SDS011;5263;48.680;9.004;2024-01-15T04:49:42;13.10;;;7.07;;
10432;SDS011;5263;48.680;9.004;2024-01-15T04:52:07;16.33;;;8.10;;
10432;SDS011;5263;48.680;9.004;2024-01-15T04:54:35;19.57;;;8.27;;
10432;SDS011;5263;48.680;9.004;2024-01-15T04:57:01;18.77;;;8.27;;
10432;SDS011;5263;48.680;9.004;2024-01-15T04:59:27;10.97;;;5.87;;
10432;SDS011;5263;48.680;9.004;2024-01-15T05:01:53;14.40;;;6.70;;
10432;SDS011;5263;48.680;9.004;2024-01-15T05:04:18;16.23;;;7.57;;
10432;SDS011;5263;48.680;9.004;2024-01-15T05:06:44;20.10;;;7.73;;
10432;SDS011;5263;48.680;9.004;2024-01-15T05:09:09;19.80;;;8.63;;
10432;SDS011;5263;48.680;9.004;2024-01-15T05:11:35;15.60;;;7.43;;
10432;SDS011;5263;48.680;9.004;2024-01-15T05:14:00;21.37;;;8.80;;
10432;SDS011;5263;48.680;9.004;2024-01-15T05:16:26;15.90;;;7.70;;
10432;SDS011;5263;48.680;9.004;2024-01-15T05:18:51;16.67;;;7.97;;
10432;SDS011;5263;48.680;9.004;2024-01-15T05:21:17;16.17;;;8.23;;
10432;SDS011;5263;48.680;9.004;2024-01-15T05:23:43;17.43;;;7.97;;
10432;SDS011;5263;48.680;9.004;2024-01-15T05:26:08;21.17;;;7.80;;
10432;SDS011;5263;48.680;9.004;2024-01-15T05:28:34;13.27;;;7.03;;
10432;SDS011;5263;48.680;9.004;2024-01-15T05:31:00;21.57;;;8.77;;
10432;SDS011;5263;48.680;9.004;2024-01-15T05:33:26;15.33;;;7.70;;
10432;SDS011;5263;48.680;9.004;2024-01-15T05:35:51;15.30;;;7.40;;
10432;SDS011;5263;48.680;9.004;2024-01-15T05:38:19;16.43;;;7.47;;
10432;SDS011;5263;48.680;9.004;2024-01-15T05:40:45;15.97;;;7.57;;
10432;SDS011;5263;48.680;9.004;2024-01-15T05:43:10;14.40;;;6.07;;
10432;SDS011;5263;48.680;9.004;2024-01-15T05:45:37;16.10;;;7.63;;
10432;SDS011;5263;48.680;9.004;2024-01-15T05:48:03;18.13;;;7.60;;
10432;SDS011;5263;48.680;9.004;2024-01-15T05:50:29;16.27;;;6.07;;
10432;SDS011;5263;48.680;9.004;2024-01-15T05:52:55;11.67;;;5.93;;
10432;SDS011;5263;48.680;9.004;2024-01-15T05:55:20;13.93;;;6.97;;
10432;SDS011;5263;48.680;9.004;2024-01-15T05:57:46;12.97;;;6.87;;
10432;SDS011;5263;48.680;9.004;2024-01-15T06:00:11;13.40;;;6.73;;
10432;SDS011;5263;48.680;9.004;2024-01-15T06:02:38;16.23;;;6.67;;
10432;SDS011;5263;48.680;9.004;2024-01-15T06:05:04;12.87;;;6.33;;
10432;SDS011;5263;48.680;9.004;2024-01-15T06:07:30;10.10;;;5.73;;
10432;SDS011;5263;48.680;9.004;2024-01-15T06:09:56;10.37;;;5.37;;
10432;SDS011;5263;48.680;9.004;2024-01-15T06:12:22;11.50;;;5.70;;
10432;SDS011;5263;48.680;9.004;2024-01-15T06:14:48;11.57;;;5.27;;
10432;SDS011;5263;48.680;9.004;2024-01-15T06:17:13;16.20;;;6.90;;
10432;SDS011;5263;48.680;9.004;2024-01-15T06:19:39;13.77;;;6.20;;
10432;SDS011;5263;48.680;9.004;2024-01-15T06:22:05;13.83;;;7.13;;
10432;SDS011;5263;48.680;9.004;2024-01-15T06:24:30;11.20;;;6.23;;
10432;SDS011;5263;48.680;9.004;2024-01-15T06:26:56;13.80;;;5.97;;
10432;SDS011;5263;48.680;9.004;2024-01-15T06:29:21;12.70;;;6.87;;
10432;SDS011;5263;48.680;9.004;2024-01-15T06:31:50;12.00;;;6.60;;
10432;SDS011;5263;48.680;9.004;2024-01-15T06:34:15;11.50;;;5.30;;
10432;SDS011;5263;48.680;9.004;2024-01-15T06:36:41;13.37;;;6.37;;
10432;SDS011;5263;48.680;9.004;2024-01-15T06:39:07;9.63;;;5.37;;
10432;SDS011;5263;48.680;9.004;2024-01-15T06:41:32;14.53;;;5.23;;
10432;SDS011;5263;48.680;9.004;2024-01-15T06:43:58;12.87;;;5.43;;
10432;SDS011;5263;48.680;9.004;2024-01-15T06:46:23;14.40;;;5.30;;
10432;SDS011;5263;48.680;9.004;2024-01-15T06:48:49;10.17;;;5.20;;
10432;SDS011;5263;48.680;9.004;2024-01-15T06:51:15;10.13;;;4.23;;
10432;SDS011;5263;48.680;9.004;2024-01-15T06:53:41;11.30;;;6.30;;
10432;SDS011;5263;48.680;9.004;2024-01-15T06:56:07;12.27;;;5.80;;
10432;SDS011;5263;48.680;9.004;2024-01-15T06:58:33;14.30;;;5.27;;
10432;SDS011;5263;48.680;9.004;2024-01-15T07:00:59;14.63;;;5.40;;
10432;SDS011;5263;48.680;9.004;2024-01-15T07:03:24;15.87;;;7.43;;
10432;SDS011;5263;48.680;9.004;2024-01-15T07:05:50;15.53;;;6.97;;
10432;SDS011;5263;48.680;9.004;2024-01-15T07:08:15;15.17;;;6.63;;
10432;SDS011;5263;48.680;9.004;2024-01-15T07:10:41;10.03;;;5.37;;
10432;SDS011;5263;48.680;9.004;2024-01-15T07:13:07;10.87;;;6.43;;
10432;SDS011;5263;48.680;9.004;2024-01-15T07:15:32;11.87;;;5.40;;
10432;SDS011;5263;48.680;9.004;2024-01-15T07:17:58;12.70;;;6.87;;
10432;SDS011;5263;48.680;9.004;2024-01-15T07:20:23;14.17;;;7.13;;
10432;SDS011;5263;48.680;9.004;2024-01-15T07:22:49;12.00;;;5.93;;
10432;SDS011;5263;48.680;9.004;2024-01-15T07:25:15;10.33;;;6.43;;
10432;SDS011;5263;48.680;9.004;2024-01-15T07:27:41;11.90;;;5.87;;
10432;SDS011;5263;48.680;9.004;2024-01-15T07:30:09;12.00;;;6.03;;
10432;SDS011;5263;48.680;9.004;2024-01-15T07:32:36;15.50;;;6.30;;
10432;SDS011;5263;48.680;9.004;2024-01-15T07:35:02;9.87;;;5.20;;
10432;SDS011;5263;48.680;9.004;2024-01-15T07:37:28;9.47;;;5.47;;
10432;SDS011;5263;48.680;9.004;2024-01-15T07:39:53;9.07;;;5.00;;
10432;SDS011;5263;48.680;9.004;2024-01-15T07:42:19;11.70;;;5.00;;
10432;SDS011;5263;48.680;9.004;2024-01-15T07:44:45;7.50;;;4.47;;
10432;SDS011;5263;48.680;9.004;2024-01-15T07:47:10;9.37;;;5.60;;
10432;SDS011;5263;48.680;9.004;2024-01-15T07:49:36;9.43;;;4.70;;
10432;SDS011;5263;48.680;9.004;2024-01-15T07:52:02;12.70;;;4.97;;
10432;SDS011;5263;48.680;9.004;2024-01-15T07:54:29;10.57;;;4.93;;
10432;SDS011;5263;48.680;9.004;2024-01-15T07:56:59;12.37;;;5.37;;
10432;SDS011;5263;48.680;9.004;2024-01-15T07:59:26;9.77;;;4.67;;
10432;SDS011;5263;48.680;9.004;2024-01-15T08:01:52;9.87;;;4.50;;
10432;SDS011;5263;48.680;9.004;2024-01-15T08:04:18;11.03;;;5.73;;
10432;SDS011;5263;48.680;9.004;2024-01-15T08:06:44;11.63;;;4.67;;
10432;SDS011;5263;48.680;9.004;2024-01-15T08:09:10;7.80;;;4.30;;
10432;SDS011;5263;48.680;9.004;2024-01-15T08:11:38;11.63;;;5.10;;
10432;SDS011;5263;48.680;9.004;2024-01-15T08:14:06;10.23;;;5.33;;
10432;SDS011;5263;48.680;9.004;2024-01-15T08:16:32;7.30;;;4.80;;
10432;SDS011;5263;48.680;9.004;2024-01-15T08:18:57;9.70;;;4.40;;
10432;SDS011;5263;48.680;9.004;2024-01-15T08:21:23;9.03;;;4.43;;
10432;SDS011;5263;48.680;9.004;2024-01-15T08:23:48;9.43;;;5.37;;
10432;SDS011;5263;48.680;9.004;2024-01-15T08:26:14;7.73;;;3.97;;
10432;SDS011;5263;48.680;9.004;2024-01-15T08:28:39;6.80;;;3.50;;
10432;SDS011;5263;48.680;9.004;2024-01-15T08:31:05;6.00;;;3.27;;
10432;SDS011;5263;48.680;9.004;2024-01-15T08:33:30;7.93;;;3.37;;
10432;SDS011;5263;48.680;9.004;2024-01-15T08:35:56;5.63;;;3.23;;
10432;SDS011;5263;48.680;9.004;2024-01-15T08:38:21;11.10;;;3.17;;
10432;SDS011;5263;48.680;9.004;2024-01-15T08:40:48;7.40;;;2.90;;
10432;SDS011;5263;48.680;9.004;2024-01-15T08:43:14;4.80;;;3.07;;
10432;SDS011;5263;48.680;9.004;2024-01-15T08:45:40;9.30;;;3.63;;
10432;SDS011;5263;48.680;9.004;2024-01-15T08:48:05;6.47;;;3.33;;
10432;SDS011;5263;48.680;9.004;2024-01-15T08:50:32;10.33;;;3.43;;
10432;SDS011;5263;48.680;9.004;2024-01-15T08:52:58;7.73;;;2.93;;
10432;SDS011;5263;48.680;9.004;2024-01-15T08:55:24;5.80;;;2.90;;
10432;SDS011;5263;48.680;9.004;2024-01-15T08:57:49;6.67;;;3.03;;
10432;SDS011;5263;48.680;9.004;2024-01-15T09:00:15;5.70;;;2.47;;
10432;SDS011;5263;48.680;9.004;2024-01-15T09:02:41;7.27;;;2.43;;
10432;SDS011;5263;48.680;9.004;2024-01-15T09:05:07;5.83;;;2.90;;
10432;SDS011;5263;48.680;9.004;2024-01-15T09:07:33;5.43;;;2.70;;
10432;SDS011;5263;48.680;9.004;2024-01-15T09:09:59;6.87;;;3.07;;
10432;SDS011;5263;48.680;9.004;2024-01-15T09:12:25;4.50;;;2.77;;
10432;SDS011;5263;48.680;9.004;2024-01-15T09:14:51;3.73;;;1.93;;
10432;SDS011;5263;48.680;9.004;2024-01-15T09:17:18;4.33;;;2.73;;
10432;SDS011;5263;48.680;9.004;2024-01-15T09:19:44;5.80;;;2.50;;
10432;SDS011;5263;48.680;9.004;2024-01-15T09:22:10;5.10;;;2.57;;
10432;SDS011;5263;48.680;9.004;2024-01-15T09:24:39;8.43;;;2.67;;
10432;SDS011;5263;48.680;9.004;2024-01-15T09:27:06;6.53;;;2.73;;
10432;SDS011;5263;48.680;9.004;2024-01-15T09:29:32;2.80;;;1.43;;
10432;SDS011;5263;48.680;9.004;2024-01-15T09:31:57;8.33;;;3.40;;
10432;SDS011;5263;48.680;9.004;2024-01-15T09:34:23;6.97;;;2.90;;
10432;SDS011;5263;48.680;9.004;2024-01-15T09:36:49;7.53;;;2.37;;
10432;SDS011;5263;48.680;9.004;2024-01-15T09:39:14;5.37;;;2.50;;
10432;SDS011;5263;48.680;9.004;2024-01-15T09:41:40;3.93;;;2.57;;
10432;SDS011;5263;48.680;9.004;2024-01-15T09:44:07;19.33;;;3.37;;
10432;SDS011;5263;48.680;9.004;2024-01-15T09:46:34;6.63;;;3.70;;
10432;SDS011;5263;48.680;9.004;2024-01-15T09:49:00;4.53;;;2.23;;
10432;SDS011;5263;48.680;9.004;2024-01-15T09:51:30;6.20;;;1.80;;
10432;SDS011;5263;48.680;9.004;2024-01-15T09:53:57;9.50;;;2.00;;
10432;SDS011;5263;48.680;9.004;2024-01-15T09:56:23;4.17;;;2.27;;
10432;SDS011;5263;48.680;9.004;2024-01-15T09:58:49;6.17;;;2.33;;
10432;SDS011;5263;48.680;9.004;2024-01-15T10:01:17;7.20;;;2.40;;
10432;SDS011;5263;48.680;9.004;2024-01-15T10:03:45;6.87;;;2.63;;
10432;SDS011;5263;48.680;9.004;2024-01-15T10:06:11;10.77;;;2.97;;
10432;SDS011;5263;48.680;9.004;2024-01-15T10:08:47;5.17;;;3.07;;
10432;SDS011;5263;48.680;9.004;2024-01-15T10:11:14;4.33;;;2.97;;
10432;SDS011;5263;48.680;9.004;2024-01-15T10:13:40;5.53;;;2.30;;
10432;SDS011;5263;48.680;9.004;2024-01-15T10:16:06;5.97;;;2.57;;
10432;SDS011;5263;48.680;9.004;2024-01-15T10:18:32;7.83;;;2.77;;
10432;SDS011;5263;48.680;9.004;2024-01-15T10:20:57;6.13;;;2.87;;
10432;SDS011;5263;48.680;9.004;2024-01-15T10:23:24;4.87;;;2.77;;
10432;SDS011;5263;48.680;9.004;2024-01-15T10:25:49;9.30;;;3.73;;
10432;SDS011;5263;48.680;9.004;2024-01-15T10:28:16;8.07;;;3.17;;
10432;SDS011;5263;48.680;9.004;2024-01-15T10:30:44;5.00;;;3.27;;
10432;SDS011;5263;48.680;9.004;2024-01-15T10:33:10;6.80;;;2.90;;
10432;SDS011;5263;48.680;9.004;2024-01-15T10:35:36;5.47;;;3.50;;
10432;SDS011;5263;48.680;9.004;2024-01-15T10:38:03;6.37;;;3.50;;
10432;SDS011;5263;48.680;9.004;2024-01-15T10:40:30;3.87;;;2.97;;
10432;SDS011;5263;48.680;9.004;2024-01-15T10:42:56;5.67;;;2.60;;
10432;SDS011;5263;48.680;9.004;2024-01-15T10:45:22;5.77;;;2.50;;
10432;SDS011;5263;48.680;9.004;2024-01-15T10:47:47;5.37;;;2.93;;
10432;SDS011;5263;48.680;9.004;2024-01-15T10:50:13;4.90;;;2.70;;
10432;SDS011;5263;48.680;9.004;2024-01-15T10:52:40;6.07;;;1.90;;
10432;SDS011;5263;48.680;9.004;2024-01-15T10:55:06;3.73;;;2.20;;
10432;SDS011;5263;48.680;9.004;2024-01-15T10:57:34;6.30;;;3.33;;
10432;SDS011;5263;48.680;9.004;2024-01-15T11:00:04;8.53;;;3.97;;
10432;SDS011;5263;48.680;9.004;2024-01-15T11:02:32;5.23;;;2.40;;
10432;SDS011;5263;48.680;9.004;2024-01-15T11:04:59;7.03;;;3.90;;
10432;SDS011;5263;48.680;9.004;2024-01-15T11:07:25;11.50;;;3.37;;
10432;SDS011;5263;48.680;9.004;2024-01-15T11:09:52;8.60;;;3.93;;
10432;SDS011;5263;48.680;9.004;2024-01-15T11:12:17;5.63;;;3.30;;
10432;SDS011;5263;48.680;9.004;2024-01-15T11:14:48;5.70;;;3.20;;
10432;SDS011;5263;48.680;9.004;2024-01-15T11:17:15;6.27;;;3.17;;
10432;SDS011;5263;48.680;9.004;2024-01-15T11:22:09;5.70;;;2.90;;
10432;SDS011;5263;48.680;9.004;2024-01-15T11:24:43;7.27;;;3.57;;
10432;SDS011;5263;48.680;9.004;2024-01-15T11:27:09;8.03;;;3.47;;
10432;SDS011;5263;48.680;9.004;2024-01-15T11:29:35;4.10;;;2.80;;
10432;SDS011;5263;48.680;9.004;2024-01-15T11:32:03;8.90;;;3.13;;
10432;SDS011;5263;48.680;9.004;2024-01-15T11:34:51;7.13;;;3.70;;
10432;SDS011;5263;48.680;9.004;2024-01-15T11:37:27;14.13;;;3.50;;
10432;SDS011;5263;48.680;9.004;2024-01-15T11:39:54;6.10;;;3.27;;
10432;SDS011;5263;48.680;9.004;2024-01-15T11:42:22;6.37;;;3.07;;
10432;SDS011;5263;48.680;9.004;2024-01-15T11:44:49;8.40;;;3.93;;
10432;SDS011;5263;48.680;9.004;2024-01-15T11:47:15;9.17;;;4.13;;
10432;SDS011;5263;48.680;9.004;2024-01-15T11:49:59;7.17;;;2.87;;
10432;SDS011;5263;48.680;9.004;2024-01-15T11:57:50;7.90;;;4.07;;
10432;SDS011;5263;48.680;9.004;2024-01-15T12:00:19;5.20;;;3.47;;
10432;SDS011;5263;48.680;9.004;2024-01-15T12:02:46;7.50;;;3.83;;
10432;SDS011;5263;48.680;9.004;2024-01-15T12:05:13;5.53;;;3.07;;
10432;SDS011;5263;48.680;9.004;2024-01-15T12:07:43;5.87;;;4.27;;
10432;SDS011;5263;48.680;9.004;2024-01-15T12:10:11;11.90;;;5.23;;
10432;SDS011;5263;48.680;9.004;2024-01-15T12:15:15;8.20;;;3.83;;
10432;SDS011;5263;48.680;9.004;2024-01-15T12:17:40;8.57;;;4.67;;
10432;SDS011;5263;48.680;9.004;2024-01-15T12:20:06;7.90;;;5.23;;
10432;SDS011;5263;48.680;9.004;2024-01-15T12:22:32;9.13;;;5.13;;
10432;SDS011;5263;48.680;9.004;2024-01-15T12:24:58;6.87;;;4.40;;
10432;SDS011;5263;48.680;9.004;2024-01-15T12:27:24;9.27;;;5.17;;
10432;SDS011;5263;48.680;9.004;2024-01-15T12:29:50;12.33;;;6.30;;
10432;SDS011;5263;48.680;9.004;2024-01-15T12:32:15;8.30;;;4.57;;
10432;SDS011;5263;48.680;9.004;2024-01-15T12:34:41;11.77;;;4.87;;
10432;SDS011;5263;48.680;9.004;2024-01-15T12:37:08;8.53;;;4.83;;
10432;SDS011;5263;48.680;9.004;2024-01-15T12:39:34;9.60;;;5.27;;
10432;SDS011;5263;48.680;9.004;2024-01-15T12:42:00;11.87;;;4.93;;
10432;SDS011;5263;48.680;9.004;2024-01-15T12:44:27;8.50;;;5.33;;
10432;SDS011;5263;48.680;9.004;2024-01-15T12:46:53;10.47;;;4.77;;
10432;SDS011;5263;48.680;9.004;2024-01-15T12:49:19;6.97;;;4.40;;
10432;SDS011;5263;48.680;9.004;2024-01-15T12:51:51;12.07;;;5.83;;
10432;SDS011;5263;48.680;9.004;2024-01-15T12:54:18;9.57;;;5.53;;
10432;SDS011;5263;48.680;9.004;2024-01-15T12:56:44;9.90;;;5.57;;
10432;SDS011;5263;48.680;9.004;2024-01-15T12:59:09;10.40;;;5.70;;
10432;SDS011;5263;48.680;9.004;2024-01-15T13:01:35;6.57;;;4.60;;
10432;SDS011;5263;48.680;9.004;2024-01-15T13:04:01;15.87;;;6.50;;
10432;SDS011;5263;48.680;9.004;2024-01-15T13:06:26;14.60;;;5.63;;
10432;SDS011;5263;48.680;9.004;2024-01-15T13:08:52;9.57;;;5.60;;
10432;SDS011;5263;48.680;9.004;2024-01-15T13:11:17;15.57;;;5.77;;
10432;SDS011;5263;48.680;9.004;2024-01-15T13:13:43;11.10;;;5.50;;
10432;SDS011;5263;48.680;9.004;2024-01-15T13:16:08;11.80;;;5.70;;
10432;SDS011;5263;48.680;9.004;2024-01-15T13:18:34;12.73;;;5.83;;
10432;SDS011;5263;48.680;9.004;2024-01-15T13:21:00;7.80;;;5.37;;
10432;SDS011;5263;48.680;9.004;2024-01-15T13:23:27;12.33;;;4.70;;
10432;SDS011;5263;48.680;9.004;2024-01-15T13:25:53;11.53;;;4.80;;
10432;SDS011;5263;48.680;9.004;2024-01-15T13:28:18;7.30;;;3.33;;
10432;SDS011;5263;48.680;9.004;2024-01-15T13:30:44;5.50;;;3.97;;
10432;SDS011;5263;48.680;9.004;2024-01-15T13:33:09;7.50;;;3.93;;
10432;SDS011;5263;48.680;9.004;2024-01-15T13:35:35;6.40;;;3.13;;
10432;SDS011;5263;48.680;9.004;2024-01-15T13:38:01;7.97;;;3.67;;
10432;SDS011;5263;48.680;9.004;2024-01-15T13:40:26;5.60;;;2.80;;
10432;SDS011;5263;48.680;9.004;2024-01-15T13:42:52;3.93;;;2.60;;
10432;SDS011;5263;48.680;9.004;2024-01-15T13:45:19;6.47;;;2.47;;
10432;SDS011;5263;48.680;9.004;2024-01-15T13:47:45;6.20;;;2.80;;
10432;SDS011;5263;48.680;9.004;2024-01-15T13:50:11;3.73;;;2.90;;
10432;SDS011;5263;48.680;9.004;2024-01-15T13:52:37;4.40;;;2.87;;
10432;SDS011;5263;48.680;9.004;2024-01-15T13:55:03;3.97;;;2.50;;
10432;SDS011;5263;48.680;9.004;2024-01-15T13:57:28;4.57;;;2.37;;
10432;SDS011;5263;48.680;9.004;2024-01-15T13:59:54;3.07;;;2.43;;
10432;SDS011;5263;48.680;9.004;2024-01-15T14:02:20;5.33;;;3.07;;
10432;SDS011;5263;48.680;9.004;2024-01-15T14:04:46;6.43;;;2.63;;
10432;SDS011;5263;48.680;9.004;2024-01-15T14:07:12;6.00;;;3.10;;
10432;SDS011;5263;48.680;9.004;2024-01-15T14:09:37;7.73;;;4.03;;
10432;SDS011;5263;48.680;9.004;2024-01-15T14:12:03;4.13;;;2.87;;
10432;SDS011;5263;48.680;9.004;2024-01-15T14:14:29;5.37;;;3.10;;
10432;SDS011;5263;48.680;9.004;2024-01-15T14:16:55;5.73;;;3.00;;
10432;SDS011;5263;48.680;9.004;2024-01-15T14:19:20;6.93;;;3.60;;
10432;SDS011;5263;48.680;9.004;2024-01-15T14:21:46;5.10;;;2.77;;
10432;SDS011;5263;48.680;9.004;2024-01-15T14:24:11;9.17;;;3.60;;
10432;SDS011;5263;48.680;9.004;2024-01-15T14:26:37;6.80;;;3.93;;
10432;SDS011;5263;48.680;9.004;2024-01-15T14:29:03;6.80;;;3.70;;
10432;SDS011;5263;48.680;9.004;2024-01-15T14:31:28;6.80;;;3.10;;
10432;SDS011;5263;48.680;9.004;2024-01-15T14:33:54;4.47;;;2.87;;
10432;SDS011;5263;48.680;9.004;2024-01-15T14:36:20;7.67;;;2.90;;
10432;SDS011;5263;48.680;9.004;2024-01-15T14:38:46;2.33;;;1.50;;
10432;SDS011;5263;48.680;9.004;2024-01-15T14:41:11;5.63;;;2.03;;
10432;SDS011;5263;48.680;9.004;2024-01-15T14:43:37;3.83;;;1.63;;
10432;SDS011;5263;48.680;9.004;2024-01-15T14:46:02;3.97;;;2.33;;
10432;SDS011;5263;48.680;9.004;2024-01-15T14:48:28;2.20;;;1.53;;
10432;SDS011;5263;48.680;9.004;2024-01-15T14:50:54;7.03;;;2.20;;
10432;SDS011;5263;48.680;9.004;2024-01-15T14:53:20;3.60;;;1.67;;
10432;SDS011;5263;48.680;9.004;2024-01-15T14:55:46;4.53;;;1.60;;